sensor_id;sensor_type;location;lat;lon;timestamp;temperature;humidity
46335;DHT22;32051;48.882;9.210;2023-03-23T00:01:21;13.90;98.40
46335;DHT22;32051;48.882;9.210;2023-03-23T00:03:50;13.90;98.20
46335;DHT22;32051;48.882;9.210;2023-03-23T00:06:16;13.90;98.20
46335;DHT22;32051;48.882;9.210;2023-03-23T00:08:45;13.90;98.20
46335;DHT22;32051;48.882;9.210;2023-03-23T00:11:20;13.90;98.40
46335;DHT22;32051;48.882;9.210;2023-03-23T00:13:48;13.90;98.50
46335;DHT22;32051;48.882;9.210;2023-03-23T00:16:17;14.00;98.10
46335;DHT22;32051;48.882;9.210;2023-03-23T00:18:48;14.00;97.30
46335;DHT22;32051;48.882;9.210;2023-03-23T00:21:21;14.10;96.60
46335;DHT22;32051;48.882;9.210;2023-03-23T00:23:53;14.20;96.80
46335;DHT22;32051;48.882;9.210;2023-03-23T00:26:19;14.30;96.80
46335;DHT22;32051;48.882;9.210;2023-03-23T00:28:44;14.30;96.80
46335;DHT22;32051;48.882;9.210;2023-03-23T00:31:12;14.40;96.50
46335;DHT22;32051;48.882;9.210;2023-03-23T00:33:39;14.40;96.70
46335;DHT22;32051;48.882;9.210;2023-03-23T00:38:35;14.50;96.50
46335;DHT22;32051;48.882;9.210;2023-03-23T00:41:01;14.50;96.40
46335;DHT22;32051;48.882;9.210;2023-03-23T00:43:31;14.60;96.30
46335;DHT22;32051;48.882;9.210;2023-03-23T00:45:57;14.60;96.30
46335;DHT22;32051;48.882;9.210;2023-03-23T00:48:28;14.70;96.20
46335;DHT22;32051;48.882;9.210;2023-03-23T00:50:54;14.70;96.30
46335;DHT22;32051;48.882;9.210;2023-03-23T00:53:20;14.70;96.50
46335;DHT22;32051;48.882;9.210;2023-03-23T00:55:48;14.70;96.40
46335;DHT22;32051;48.882;9.210;2023-03-23T00:58:16;14.70;96.30
46335;DHT22;32051;48.882;9.210;2023-03-23T01:00:42;14.70;96.30
46335;DHT22;32051;48.882;9.210;2023-03-23T01:03:09;14.70;96.40
46335;DHT22;32051;48.882;9.210;2023-03-23T01:05:39;14.70;96.50
46335;DHT22;32051;48.882;9.210;2023-03-23T01:08:05;14.70;96.50
46335;DHT22;32051;48.882;9.210;2023-03-23T01:10:32;14.70;96.70
46335;DHT22;32051;48.882;9.210;2023-03-23T01:13:00;14.60;97.00
46335;DHT22;32051;48.882;9.210;2023-03-23T01:15:27;14.60;97.20
46335;DHT22;32051;48.882;9.210;2023-03-23T01:17:53;14.50;96.90
46335;DHT22;32051;48.882;9.210;2023-03-23T01:20:19;14.50;97.00
46335;DHT22;32051;48.882;9.210;2023-03-23T01:22:45;14.50;97.10
46335;DHT22;32051;48.882;9.210;2023-03-23T01:25:12;14.40;97.60
46335;DHT22;32051;48.882;9.210;2023-03-23T01:27:38;14.40;97.40
46335;DHT22;32051;48.882;9.210;2023-03-23T01:30:05;14.30;97.80
46335;DHT22;32051;48.882;9.210;2023-03-23T01:32:31;14.20;97.90
46335;DHT22;32051;48.882;9.210;2023-03-23T01:34:57;14.20;97.70
46335;DHT22;32051;48.882;9.210;2023-03-23T01:37:22;14.10;97.90
46335;DHT22;32051;48.882;9.210;2023-03-23T01:39:54;14.10;98.00
46335;DHT22;32051;48.882;9.210;2023-03-23T01:42:25;14.00;98.10
46335;DHT22;32051;48.882;9.210;2023-03-23T02:04:55;13.70;98.80
46335;DHT22;32051;48.882;9.210;2023-03-23T02:07:23;13.60;99.00
46335;DHT22;32051;48.882;9.210;2023-03-23T02:09:51;13.50;99.00
46335;DHT22;32051;48.882;9.210;2023-03-23T02:12:18;13.50;99.20
46335;DHT22;32051;48.882;9.210;2023-03-23T02:14:45;13.50;98.90
46335;DHT22;32051;48.882;9.210;2023-03-23T02:17:43;13.50;98.70
46335;DHT22;32051;48.882;9.210;2023-03-23T02:25:52;13.50;99.00
46335;DHT22;32051;48.882;9.210;2023-03-23T02:34:00;13.40;98.70
46335;DHT22;32051;48.882;9.210;2023-03-23T02:36:36;13.40;98.70
46335;DHT22;32051;48.882;9.210;2023-03-23T02:39:37;13.40;98.70
46335;DHT22;32051;48.882;9.210;2023-03-23T02:42:06;13.40;98.90
46335;DHT22;32051;48.882;9.210;2023-03-23T02:44:36;13.40;99.10
46335;DHT22;32051;48.882;9.210;2023-03-23T02:47:06;13.30;99.00
46335;DHT22;32051;48.882;9.210;2023-03-23T02:49:34;13.30;99.20
46335;DHT22;32051;48.882;9.210;2023-03-23T02:52:06;13.30;98.90
46335;DHT22;32051;48.882;9.210;2023-03-23T02:54:33;13.30;98.90
46335;DHT22;32051;48.882;9.210;2023-03-23T02:57:00;13.30;99.10
46335;DHT22;32051;48.882;9.210;2023-03-23T02:59:30;13.20;99.20
46335;DHT22;32051;48.882;9.210;2023-03-23T03:02:18;13.20;99.30
46335;DHT22;32051;48.882;9.210;2023-03-23T03:10:22;13.20;99.70
46335;DHT22;32051;48.882;9.210;2023-03-23T03:16:28;13.20;99.90
46335;DHT22;32051;48.882;9.210;2023-03-23T03:18:32;13.20;99.80
46335;DHT22;32051;48.882;9.210;2023-03-23T03:21:06;13.20;99.90
46335;DHT22;32051;48.882;9.210;2023-03-23T03:23:35;13.20;99.90
46335;DHT22;32051;48.882;9.210;2023-03-23T03:26:04;13.20;99.90
46335;DHT22;32051;48.882;9.210;2023-03-23T03:28:44;13.30;99.90
46335;DHT22;32051;48.882;9.210;2023-03-23T03:31:17;13.30;99.90
46335;DHT22;32051;48.882;9.210;2023-03-23T03:33:44;13.30;99.90
46335;DHT22;32051;48.882;9.210;2023-03-23T03:36:21;13.30;99.90
46335;DHT22;32051;48.882;9.210;2023-03-23T03:38:50;13.30;99.90
46335;DHT22;32051;48.882;9.210;2023-03-23T03:41:17;13.20;99.90
46335;DHT22;32051;48.882;9.210;2023-03-23T03:43:45;13.20;99.90
46335;DHT22;32051;48.882;9.210;2023-03-23T03:46:10;13.20;99.90
46335;DHT22;32051;48.882;9.210;2023-03-23T03:48:38;13.30;99.90
46335;DHT22;32051;48.882;9.210;2023-03-23T03:51:04;13.20;99.90
46335;DHT22;32051;48.882;9.210;2023-03-23T03:53:32;13.20;99.90
46335;DHT22;32051;48.882;9.210;2023-03-23T03:55:58;13.20;99.90
46335;DHT22;32051;48.882;9.210;2023-03-23T03:58:27;13.20;99.90
46335;DHT22;32051;48.882;9.210;2023-03-23T04:01:18;13.20;99.90
46335;DHT22;32051;48.882;9.210;2023-03-23T04:03:47;13.20;99.90
46335;DHT22;32051;48.882;9.210;2023-03-23T04:06:26;13.20;99.90
46335;DHT22;32051;48.882;9.210;2023-03-23T04:08:57;13.20;99.90
46335;DHT22;32051;48.882;9.210;2023-03-23T04:11:25;13.20;99.90
46335;DHT22;32051;48.882;9.210;2023-03-23T04:13:54;13.20;99.90
46335;DHT22;32051;48.882;9.210;2023-03-23T04:16:25;13.20;99.90
46335;DHT22;32051;48.882;9.210;2023-03-23T04:18:52;13.20;99.90
46335;DHT22;32051;48.882;9.210;2023-03-23T04:21:21;13.20;99.90
46335;DHT22;32051;48.882;9.210;2023-03-23T04:23:49;13.20;99.90
46335;DHT22;32051;48.882;9.210;2023-03-23T04:26:14;13.20;99.90
46335;DHT22;32051;48.882;9.210;2023-03-23T04:28:44;13.20;99.90
46335;DHT22;32051;48.882;9.210;2023-03-23T04:31:29;13.20;99.90
46335;DHT22;32051;48.882;9.210;2023-03-23T04:34:05;13.20;99.90
46335;DHT22;32051;48.882;9.210;2023-03-23T04:36:37;13.20;99.90
46335;DHT22;32051;48.882;9.210;2023-03-23T04:39:10;13.20;99.90
46335;DHT22;32051;48.882;9.210;2023-03-23T04:41:37;13.20;99.90
46335;DHT22;32051;48.882;9.210;2023-03-23T04:44:26;13.20;99.90
46335;DHT22;32051;48.882;9.210;2023-03-23T04:47:08;13.20;99.90
46335;DHT22;32051;48.882;9.210;2023-03-23T04:49:40;13.20;99.90
46335;DHT22;32051;48.882;9.210;2023-03-23T04:52:16;13.20;99.90
46335;DHT22;32051;48.882;9.210;2023-03-23T04:54:44;13.20;99.90
46335;DHT22;32051;48.882;9.210;2023-03-23T04:57:11;13.20;99.90
46335;DHT22;32051;48.882;9.210;2023-03-23T04:59:39;13.20;99.90
46335;DHT22;32051;48.882;9.210;2023-03-23T05:02:14;13.20;99.90
46335;DHT22;32051;48.882;9.210;2023-03-23T05:04:43;13.30;99.90
46335;DHT22;32051;48.882;9.210;2023-03-23T05:07:17;13.20;99.90
46335;DHT22;32051;48.882;9.210;2023-03-23T05:09:49;13.20;99.90
46335;DHT22;32051;48.882;9.210;2023-03-23T05:12:18;13.20;99.90
46335;DHT22;32051;48.882;9.210;2023-03-23T05:14:57;13.20;99.90
46335;DHT22;32051;48.882;9.210;2023-03-23T05:17:26;13.20;99.90
46335;DHT22;32051;48.882;9.210;2023-03-23T05:19:56;13.30;99.90
46335;DHT22;32051;48.882;9.210;2023-03-23T05:22:35;13.30;99.90
46335;DHT22;32051;48.882;9.210;2023-03-23T05:25:03;13.30;99.90
46335;DHT22;32051;48.882;9.210;2023-03-23T05:27:33;13.30;99.90
46335;DHT22;32051;48.882;9.210;2023-03-23T05:30:05;13.30;99.90
46335;DHT22;32051;48.882;9.210;2023-03-23T05:32:32;13.30;99.90
46335;DHT22;32051;48.882;9.210;2023-03-23T05:35:09;13.30;99.90
46335;DHT22;32051;48.882;9.210;2023-03-23T05:37:34;13.40;99.90
46335;DHT22;32051;48.882;9.210;2023-03-23T05:40:08;13.40;99.90
46335;DHT22;32051;48.882;9.210;2023-03-23T05:42:41;13.50;99.90
46335;DHT22;32051;48.882;9.210;2023-03-23T05:45:14;13.50;99.90
46335;DHT22;32051;48.882;9.210;2023-03-23T05:47:42;13.50;99.90
46335;DHT22;32051;48.882;9.210;2023-03-23T05:50:13;13.60;99.90
46335;DHT22;32051;48.882;9.210;2023-03-23T05:52:39;13.60;99.90
46335;DHT22;32051;48.882;9.210;2023-03-23T05:55:09;13.70;99.90
46335;DHT22;32051;48.882;9.210;2023-03-23T05:57:37;13.70;99.90
46335;DHT22;32051;48.882;9.210;2023-03-23T06:00:13;13.80;99.90
46335;DHT22;32051;48.882;9.210;2023-03-23T06:02:41;13.90;99.90
46335;DHT22;32051;48.882;9.210;2023-03-23T06:05:12;13.90;99.90
46335;DHT22;32051;48.882;9.210;2023-03-23T06:07:41;14.00;99.30
46335;DHT22;32051;48.882;9.210;2023-03-23T06:10:08;14.10;99.30
46335;DHT22;32051;48.882;9.210;2023-03-23T06:12:39;14.20;99.30
46335;DHT22;32051;48.882;9.210;2023-03-23T06:15:23;14.30;98.80
46335;DHT22;32051;48.882;9.210;2023-03-23T06:18:02;14.50;98.30
46335;DHT22;32051;48.882;9.210;2023-03-23T06:20:36;14.50;98.60
46335;DHT22;32051;48.882;9.210;2023-03-23T06:23:14;14.50;98.00
46335;DHT22;32051;48.882;9.210;2023-03-23T06:25:41;14.60;98.00
46335;DHT22;32051;48.882;9.210;2023-03-23T06:28:10;14.60;98.40
46335;DHT22;32051;48.882;9.210;2023-03-23T06:30:40;14.70;97.70
46335;DHT22;32051;48.882;9.210;2023-03-23T06:33:06;14.70;98.10
46335;DHT22;32051;48.882;9.210;2023-03-23T06:35:55;14.70;97.80
46335;DHT22;32051;48.882;9.210;2023-03-23T06:38:44;14.70;97.90
46335;DHT22;32051;48.882;9.210;2023-03-23T06:41:12;14.80;97.70
46335;DHT22;32051;48.882;9.210;2023-03-23T06:43:38;14.80;97.50
46335;DHT22;32051;48.882;9.210;2023-03-23T06:46:12;14.80;97.70
46335;DHT22;32051;48.882;9.210;2023-03-23T06:48:41;14.80;98.20
46335;DHT22;32051;48.882;9.210;2023-03-23T06:51:09;14.80;97.80
46335;DHT22;32051;48.882;9.210;2023-03-23T06:53:37;14.80;98.00
46335;DHT22;32051;48.882;9.210;2023-03-23T06:56:05;14.90;98.20
46335;DHT22;32051;48.882;9.210;2023-03-23T06:58:32;15.00;97.90
46335;DHT22;32051;48.882;9.210;2023-03-23T07:00:58;15.00;97.50
46335;DHT22;32051;48.882;9.210;2023-03-23T07:03:37;15.10;97.80
46335;DHT22;32051;48.882;9.210;2023-03-23T07:06:03;15.10;97.60
46335;DHT22;32051;48.882;9.210;2023-03-23T07:08:34;15.10;97.50
46335;DHT22;32051;48.882;9.210;2023-03-23T07:11:00;15.10;97.80
46335;DHT22;32051;48.882;9.210;2023-03-23T07:13:28;15.10;97.90
46335;DHT22;32051;48.882;9.210;2023-03-23T07:15:58;15.10;97.90
46335;DHT22;32051;48.882;9.210;2023-03-23T07:18:24;15.10;98.00
46335;DHT22;32051;48.882;9.210;2023-03-23T07:20:52;15.10;98.20
46335;DHT22;32051;48.882;9.210;2023-03-23T07:23:21;15.10;98.40
46335;DHT22;32051;48.882;9.210;2023-03-23T07:26:08;15.10;98.60
46335;DHT22;32051;48.882;9.210;2023-03-23T07:28:54;15.10;99.00
46335;DHT22;32051;48.882;9.210;2023-03-23T07:31:25;15.00;98.40
46335;DHT22;32051;48.882;9.210;2023-03-23T07:33:52;15.00;98.60
46335;DHT22;32051;48.882;9.210;2023-03-23T07:36:18;15.00;98.90
46335;DHT22;32051;48.882;9.210;2023-03-23T07:38:44;15.00;99.10
46335;DHT22;32051;48.882;9.210;2023-03-23T07:41:10;15.00;99.20
46335;DHT22;32051;48.882;9.210;2023-03-23T07:43:39;15.00;99.30
46335;DHT22;32051;48.882;9.210;2023-03-23T07:46:09;15.00;99.70
46335;DHT22;32051;48.882;9.210;2023-03-23T07:48:58;15.10;99.60
46335;DHT22;32051;48.882;9.210;2023-03-23T07:51:32;15.00;99.90
46335;DHT22;32051;48.882;9.210;2023-03-23T07:53:58;15.10;99.80
46335;DHT22;32051;48.882;9.210;2023-03-23T07:56:43;15.20;99.70
46335;DHT22;32051;48.882;9.210;2023-03-23T07:59:30;15.30;99.40
46335;DHT22;32051;48.882;9.210;2023-03-23T08:01:58;15.50;99.50
46335;DHT22;32051;48.882;9.210;2023-03-23T08:04:33;15.60;99.40
46335;DHT22;32051;48.882;9.210;2023-03-23T08:07:05;15.60;98.70
46335;DHT22;32051;48.882;9.210;2023-03-23T08:09:43;15.50;99.00
46335;DHT22;32051;48.882;9.210;2023-03-23T08:12:35;15.50;99.50
46335;DHT22;32051;48.882;9.210;2023-03-23T08:15:15;15.50;99.80
46335;DHT22;32051;48.882;9.210;2023-03-23T08:18:04;15.50;99.90
46335;DHT22;32051;48.882;9.210;2023-03-23T08:21:07;15.50;99.90
46335;DHT22;32051;48.882;9.210;2023-03-23T08:23:54;15.40;99.90
46335;DHT22;32051;48.882;9.210;2023-03-23T08:26:36;15.30;99.90
46335;DHT22;32051;48.882;9.210;2023-03-23T08:29:22;15.30;99.90
46335;DHT22;32051;48.882;9.210;2023-03-23T08:32:06;15.40;99.90
46335;DHT22;32051;48.882;9.210;2023-03-23T08:34:52;15.40;99.90
46335;DHT22;32051;48.882;9.210;2023-03-23T08:37:43;15.40;99.90
46335;DHT22;32051;48.882;9.210;2023-03-23T08:40:21;15.40;99.90
46335;DHT22;32051;48.882;9.210;2023-03-23T08:43:06;15.50;99.90
46335;DHT22;32051;48.882;9.210;2023-03-23T08:45:51;15.40;99.90
46335;DHT22;32051;48.882;9.210;2023-03-23T08:48:36;15.40;99.90
46335;DHT22;32051;48.882;9.210;2023-03-23T08:51:25;15.40;99.90
46335;DHT22;32051;48.882;9.210;2023-03-23T08:54:10;15.40;99.90
46335;DHT22;32051;48.882;9.210;2023-03-23T08:56:50;15.50;99.90
46335;DHT22;32051;48.882;9.210;2023-03-23T08:59:31;15.50;99.90
46335;DHT22;32051;48.882;9.210;2023-03-23T09:02:05;15.50;99.90
46335;DHT22;32051;48.882;9.210;2023-03-23T09:04:55;15.50;99.90
46335;DHT22;32051;48.882;9.210;2023-03-23T09:07:38;15.50;99.90
46335;DHT22;32051;48.882;9.210;2023-03-23T09:10:05;15.40;99.90
46335;DHT22;32051;48.882;9.210;2023-03-23T09:12:31;15.40;99.90
46335;DHT22;32051;48.882;9.210;2023-03-23T09:14:57;15.30;99.90
46335;DHT22;32051;48.882;9.210;2023-03-23T09:17:23;15.40;99.90
46335;DHT22;32051;48.882;9.210;2023-03-23T09:19:48;15.30;99.90
46335;DHT22;32051;48.882;9.210;2023-03-23T09:22:14;15.30;99.90
46335;DHT22;32051;48.882;9.210;2023-03-23T09:24:45;15.30;99.90
46335;DHT22;32051;48.882;9.210;2023-03-23T09:27:12;15.30;99.90
46335;DHT22;32051;48.882;9.210;2023-03-23T09:29:37;15.30;99.90
46335;DHT22;32051;48.882;9.210;2023-03-23T09:32:03;15.40;99.90
46335;DHT22;32051;48.882;9.210;2023-03-23T09:34:29;15.40;99.90
46335;DHT22;32051;48.882;9.210;2023-03-23T09:36:55;15.50;99.90
46335;DHT22;32051;48.882;9.210;2023-03-23T09:39:21;15.50;99.90
46335;DHT22;32051;48.882;9.210;2023-03-23T09:52:55;15.70;99.90
46335;DHT22;32051;48.882;9.210;2023-03-23T09:55:21;15.70;99.90
46335;DHT22;32051;48.882;9.210;2023-03-23T10:00:18;15.70;99.90
46335;DHT22;32051;48.882;9.210;2023-03-23T10:03:06;15.80;99.90
46335;DHT22;32051;48.882;9.210;2023-03-23T10:05:41;15.90;99.90
46335;DHT22;32051;48.882;9.210;2023-03-23T10:11:03;15.90;99.90
46335;DHT22;32051;48.882;9.210;2023-03-23T10:15:58;15.60;99.90
46335;DHT22;32051;48.882;9.210;2023-03-23T10:18:26;15.70;99.90
46335;DHT22;32051;48.882;9.210;2023-03-23T10:20:58;15.70;99.90
46335;DHT22;32051;48.882;9.210;2023-03-23T10:32:01;15.80;99.90
46335;DHT22;32051;48.882;9.210;2023-03-23T10:34:41;15.90;99.90
46335;DHT22;32051;48.882;9.210;2023-03-23T10:37:17;15.90;99.90
46335;DHT22;32051;48.882;9.210;2023-03-23T10:39:51;15.90;99.90
46335;DHT22;32051;48.882;9.210;2023-03-23T10:42:26;16.00;99.90
46335;DHT22;32051;48.882;9.210;2023-03-23T10:44:53;16.00;99.90
46335;DHT22;32051;48.882;9.210;2023-03-23T10:47:19;16.00;99.90
46335;DHT22;32051;48.882;9.210;2023-03-23T10:50:04;16.00;99.90
46335;DHT22;32051;48.882;9.210;2023-03-23T10:52:34;16.00;99.90
46335;DHT22;32051;48.882;9.210;2023-03-23T10:57:39;16.00;99.90
46335;DHT22;32051;48.882;9.210;2023-03-23T11:00:23;16.00;99.90
46335;DHT22;32051;48.882;9.210;2023-03-23T11:03:04;16.20;99.90
46335;DHT22;32051;48.882;9.210;2023-03-23T11:05:38;16.20;99.90
46335;DHT22;32051;48.882;9.210;2023-03-23T11:08:15;16.30;99.90
46335;DHT22;32051;48.882;9.210;2023-03-23T11:10:49;16.20;99.90
46335;DHT22;32051;48.882;9.210;2023-03-23T11:13:16;16.20;99.90
46335;DHT22;32051;48.882;9.210;2023-03-23T11:15:44;16.10;99.90
46335;DHT22;32051;48.882;9.210;2023-03-23T11:18:38;16.10;99.90
46335;DHT22;32051;48.882;9.210;2023-03-23T11:21:06;16.10;99.90
46335;DHT22;32051;48.882;9.210;2023-03-23T11:23:38;16.10;99.90
46335;DHT22;32051;48.882;9.210;2023-03-23T11:26:18;16.10;99.90
46335;DHT22;32051;48.882;9.210;2023-03-23T11:31:33;16.00;99.90
46335;DHT22;32051;48.882;9.210;2023-03-23T11:34:05;16.00;99.90
46335;DHT22;32051;48.882;9.210;2023-03-23T11:36:43;16.10;99.90
46335;DHT22;32051;48.882;9.210;2023-03-23T11:39:29;16.10;99.90
46335;DHT22;32051;48.882;9.210;2023-03-23T11:42:01;16.30;99.90
46335;DHT22;32051;48.882;9.210;2023-03-23T11:44:41;16.20;99.90
46335;DHT22;32051;48.882;9.210;2023-03-23T11:47:32;16.20;99.90
46335;DHT22;32051;48.882;9.210;2023-03-23T11:52:46;16.30;99.90
46335;DHT22;32051;48.882;9.210;2023-03-23T11:57:46;16.40;99.90
46335;DHT22;32051;48.882;9.210;2023-03-23T12:00:17;16.40;99.90
46335;DHT22;32051;48.882;9.210;2023-03-23T12:02:59;16.40;99.90
46335;DHT22;32051;48.882;9.210;2023-03-23T12:12:05;16.40;99.90
46335;DHT22;32051;48.882;9.210;2023-03-23T12:14:20;16.40;99.90
46335;DHT22;32051;48.882;9.210;2023-03-23T12:25:17;16.60;99.90
46335;DHT22;32051;48.882;9.210;2023-03-23T12:28:38;16.60;99.90
46335;DHT22;32051;48.882;9.210;2023-03-23T12:30:57;16.70;99.90
46335;DHT22;32051;48.882;9.210;2023-03-23T12:33:37;16.70;99.90
46335;DHT22;32051;48.882;9.210;2023-03-23T12:41:52;16.70;99.90
46335;DHT22;32051;48.882;9.210;2023-03-23T12:44:37;16.80;99.90
46335;DHT22;32051;48.882;9.210;2023-03-23T12:47:11;16.80;99.90
46335;DHT22;32051;48.882;9.210;2023-03-23T12:49:53;16.90;99.90
46335;DHT22;32051;48.882;9.210;2023-03-23T12:52:25;17.00;99.90
46335;DHT22;32051;48.882;9.210;2023-03-23T12:55:09;17.10;99.90
46335;DHT22;32051;48.882;9.210;2023-03-23T13:00:28;17.00;99.90
46335;DHT22;32051;48.882;9.210;2023-03-23T13:03:15;16.90;99.90
46335;DHT22;32051;48.882;9.210;2023-03-23T13:06:12;16.90;99.90
46335;DHT22;32051;48.882;9.210;2023-03-23T13:09:00;17.00;99.90
46335;DHT22;32051;48.882;9.210;2023-03-23T13:11:33;17.10;99.90
46335;DHT22;32051;48.882;9.210;2023-03-23T13:22:30;17.20;99.90
46335;DHT22;32051;48.882;9.210;2023-03-23T13:25:00;17.30;99.90
46335;DHT22;32051;48.882;9.210;2023-03-23T13:27:27;17.30;99.90
46335;DHT22;32051;48.882;9.210;2023-03-23T13:29:57;17.80;99.90
46335;DHT22;32051;48.882;9.210;2023-03-23T13:32:35;17.50;99.90
46335;DHT22;32051;48.882;9.210;2023-03-23T13:35:13;17.40;99.90
46335;DHT22;32051;48.882;9.210;2023-03-23T13:37:51;17.40;99.90
46335;DHT22;32051;48.882;9.210;2023-03-23T13:42:52;17.40;99.90
46335;DHT22;32051;48.882;9.210;2023-03-23T13:50:30;17.30;99.90
46335;DHT22;32051;48.882;9.210;2023-03-23T13:53:01;17.20;99.90
46335;DHT22;32051;48.882;9.210;2023-03-23T13:55:42;17.20;99.90
46335;DHT22;32051;48.882;9.210;2023-03-23T13:58:22;17.20;99.90
46335;DHT22;32051;48.882;9.210;2023-03-23T14:01:01;17.10;99.90
46335;DHT22;32051;48.882;9.210;2023-03-23T14:03:36;17.10;99.90
46335;DHT22;32051;48.882;9.210;2023-03-23T14:06:06;17.00;99.90
46335;DHT22;32051;48.882;9.210;2023-03-23T14:08:51;17.00;99.90
46335;DHT22;32051;48.882;9.210;2023-03-23T14:11:22;17.00;99.90
46335;DHT22;32051;48.882;9.210;2023-03-23T14:14:06;17.00;99.90
46335;DHT22;32051;48.882;9.210;2023-03-23T14:19:24;17.00;99.90
46335;DHT22;32051;48.882;9.210;2023-03-23T14:21:56;17.00;99.90
46335;DHT22;32051;48.882;9.210;2023-03-23T14:24:23;17.00;99.90
46335;DHT22;32051;48.882;9.210;2023-03-23T14:26:51;17.10;99.90
46335;DHT22;32051;48.882;9.210;2023-03-23T14:29:18;17.20;99.90
46335;DHT22;32051;48.882;9.210;2023-03-23T14:31:47;17.20;99.90
46335;DHT22;32051;48.882;9.210;2023-03-23T14:34:18;17.30;99.90
46335;DHT22;32051;48.882;9.210;2023-03-23T14:36:45;17.40;99.90
46335;DHT22;32051;48.882;9.210;2023-03-23T14:39:26;17.40;99.90
46335;DHT22;32051;48.882;9.210;2023-03-23T14:41:56;17.40;99.90
46335;DHT22;32051;48.882;9.210;2023-03-23T14:44:28;16.60;99.90
46335;DHT22;32051;48.882;9.210;2023-03-23T14:46:55;17.10;99.90
46335;DHT22;32051;48.882;9.210;2023-03-23T14:49:28;17.00;99.90
46335;DHT22;32051;48.882;9.210;2023-03-23T14:51:55;17.00;99.90
46335;DHT22;32051;48.882;9.210;2023-03-23T14:54:23;17.00;99.90
46335;DHT22;32051;48.882;9.210;2023-03-23T14:56:50;16.90;99.90
46335;DHT22;32051;48.882;9.210;2023-03-23T14:59:16;16.90;99.90
46335;DHT22;32051;48.882;9.210;2023-03-23T15:01:42;16.90;99.90
46335;DHT22;32051;48.882;9.210;2023-03-23T15:04:19;16.90;99.90
46335;DHT22;32051;48.882;9.210;2023-03-23T15:06:58;16.90;99.90
46335;DHT22;32051;48.882;9.210;2023-03-23T15:09:26;17.00;99.90
46335;DHT22;32051;48.882;9.210;2023-03-23T15:11:58;17.00;99.90
46335;DHT22;32051;48.882;9.210;2023-03-23T15:14:29;17.00;99.90
46335;DHT22;32051;48.882;9.210;2023-03-23T15:16:57;17.00;99.90
46335;DHT22;32051;48.882;9.210;2023-03-23T15:19:27;17.00;99.90
46335;DHT22;32051;48.882;9.210;2023-03-23T15:22:12;16.90;99.90
46335;DHT22;32051;48.882;9.210;2023-03-23T15:24:40;16.90;99.90
46335;DHT22;32051;48.882;9.210;2023-03-23T15:29:46;17.00;99.90
46335;DHT22;32051;48.882;9.210;2023-03-23T15:32:12;17.00;99.90
46335;DHT22;32051;48.882;9.210;2023-03-23T15:34:38;17.10;99.90
46335;DHT22;32051;48.882;9.210;2023-03-23T15:37:18;17.10;99.90
46335;DHT22;32051;48.882;9.210;2023-03-23T15:39:45;17.10;99.20
46335;DHT22;32051;48.882;9.210;2023-03-23T15:42:32;17.20;98.80
46335;DHT22;32051;48.882;9.210;2023-03-23T15:52:43;17.20;98.00
46335;DHT22;32051;48.882;9.210;2023-03-23T15:55:23;17.20;97.60
46335;DHT22;32051;48.882;9.210;2023-03-23T15:57:50;17.20;97.80
46335;DHT22;32051;48.882;9.210;2023-03-23T16:00:21;17.20;97.50
46335;DHT22;32051;48.882;9.210;2023-03-23T16:02:55;17.20;96.50
46335;DHT22;32051;48.882;9.210;2023-03-23T16:05:22;17.30;96.90
46335;DHT22;32051;48.882;9.210;2023-03-23T16:07:49;17.30;97.00
46335;DHT22;32051;48.882;9.210;2023-03-23T16:10:19;17.30;96.80
46335;DHT22;32051;48.882;9.210;2023-03-23T16:12:45;17.20;96.80
46335;DHT22;32051;48.882;9.210;2023-03-23T16:15:12;17.20;95.90
46335;DHT22;32051;48.882;9.210;2023-03-23T16:17:38;17.30;96.00
46335;DHT22;32051;48.882;9.210;2023-03-23T16:20:25;17.30;95.90
46335;DHT22;32051;48.882;9.210;2023-03-23T16:22:51;17.30;96.00
46335;DHT22;32051;48.882;9.210;2023-03-23T16:25:17;17.30;95.90
46335;DHT22;32051;48.882;9.210;2023-03-23T16:27:44;17.30;95.80
46335;DHT22;32051;48.882;9.210;2023-03-23T16:30:22;17.20;95.80
46335;DHT22;32051;48.882;9.210;2023-03-23T16:32:48;17.20;96.30
46335;DHT22;32051;48.882;9.210;2023-03-23T16:35:14;17.10;96.70
46335;DHT22;32051;48.882;9.210;2023-03-23T16:37:52;17.00;96.60
46335;DHT22;32051;48.882;9.210;2023-03-23T16:40:19;16.90;97.90
46335;DHT22;32051;48.882;9.210;2023-03-23T16:42:45;16.80;98.50
46335;DHT22;32051;48.882;9.210;2023-03-23T16:45:11;16.60;99.20
46335;DHT22;32051;48.882;9.210;2023-03-23T16:47:38;16.50;99.20
46335;DHT22;32051;48.882;9.210;2023-03-23T16:50:05;16.40;98.40
46335;DHT22;32051;48.882;9.210;2023-03-23T16:52:32;16.40;98.10
46335;DHT22;32051;48.882;9.210;2023-03-23T16:54:58;16.50;99.20
46335;DHT22;32051;48.882;9.210;2023-03-23T16:57:24;16.50;98.30
46335;DHT22;32051;48.882;9.210;2023-03-23T16:59:50;16.50;98.30
46335;DHT22;32051;48.882;9.210;2023-03-23T17:02:16;16.50;98.30
46335;DHT22;32051;48.882;9.210;2023-03-23T17:04:43;16.60;98.50
46335;DHT22;32051;48.882;9.210;2023-03-23T17:07:10;16.50;98.60
46335;DHT22;32051;48.882;9.210;2023-03-23T17:09:36;16.50;98.60
46335;DHT22;32051;48.882;9.210;2023-03-23T17:12:02;16.50;97.90
46335;DHT22;32051;48.882;9.210;2023-03-23T17:14:28;16.50;98.40
46335;DHT22;32051;48.882;9.210;2023-03-23T17:16:54;16.60;97.70
46335;DHT22;32051;48.882;9.210;2023-03-23T17:19:21;16.50;97.50
46335;DHT22;32051;48.882;9.210;2023-03-23T17:21:47;16.50;97.80
46335;DHT22;32051;48.882;9.210;2023-03-23T17:24:13;16.50;97.80
46335;DHT22;32051;48.882;9.210;2023-03-23T17:26:38;16.50;97.50
46335;DHT22;32051;48.882;9.210;2023-03-23T17:29:04;16.50;97.40
46335;DHT22;32051;48.882;9.210;2023-03-23T17:31:30;16.50;97.40
46335;DHT22;32051;48.882;9.210;2023-03-23T17:33:55;16.50;97.50
46335;DHT22;32051;48.882;9.210;2023-03-23T17:36:22;16.50;97.60
46335;DHT22;32051;48.882;9.210;2023-03-23T17:38:49;16.50;97.40
46335;DHT22;32051;48.882;9.210;2023-03-23T17:41:15;16.50;97.60
46335;DHT22;32051;48.882;9.210;2023-03-23T17:43:41;16.40;97.60
46335;DHT22;32051;48.882;9.210;2023-03-23T17:46:08;16.40;97.70
46335;DHT22;32051;48.882;9.210;2023-03-23T17:48:35;16.40;97.20
46335;DHT22;32051;48.882;9.210;2023-03-23T17:51:01;16.40;97.20
46335;DHT22;32051;48.882;9.210;2023-03-23T17:53:29;16.40;97.40
46335;DHT22;32051;48.882;9.210;2023-03-23T17:55:56;16.40;97.30
46335;DHT22;32051;48.882;9.210;2023-03-23T17:58:23;16.40;97.70
46335;DHT22;32051;48.882;9.210;2023-03-23T18:00:53;16.40;97.40
46335;DHT22;32051;48.882;9.210;2023-03-23T18:03:19;16.40;97.40
46335;DHT22;32051;48.882;9.210;2023-03-23T18:05:45;16.40;97.50
46335;DHT22;32051;48.882;9.210;2023-03-23T18:08:11;16.40;97.50
46335;DHT22;32051;48.882;9.210;2023-03-23T18:10:38;16.40;97.70
46335;DHT22;32051;48.882;9.210;2023-03-23T18:13:06;16.40;98.00